Portada
METAR-TAF:

METAR-TAF

Aeroports :

Montauk, Nova York, Estats Units d'Amèrica

latitud: 41-04-23N, longitud: 071-55-24W, altitud: 2 m

Observació

L'informe es va fer fa 1 hora i 11 minuts, a les 17:54 UTC
Vent 11 kt del Sud-Oest amb ràfegues de 18 kt
Temperatura 15°C
Humitat 94%
Pressió 1016 hPa

METAR: KMTP 261754Z AUTO 23011G18KT 15/14 A2999 RMK AO1 SLP154 P0019 60040 T01500144 10156 20144 57030

Hora: 14:05 (19:05 UTC)


TAF: manca

Observacions i pronòstics meteorològics de més de 4000 aeroports (METAR i TAF).

Les estacions disponibles són els punts grocs i vermells al mapa.

Posi el ratolí al punt desitjat per veure el nom de l'estació.

Feu clic per veure les observacions i els pronòstics meteorològics.

Per canviar el mapa: feu clic els botons verds amb una creu de color negre per apropar; al botó verd amb un guió per allunyar la imatge; o en les fletxes verdes per a mapes adjacents.


METAR-TAF: